Ruston, Washington
Current Conditions -  °F | °C
As of 2:53 PM on Friday 19 Dec 2014 (Local Time) from KTIW Reporting Station
Broken Clouds Broken Clouds  
Wind Chill: 50°   Ceiling: 3400
Heat Index: 50°   Visibility: 10mi
Dew Point: 40°   Wind: 14mph
Humidity: 68%   Direction: 180°S
Pressure: 29.95"   Gusts: 23mph
Location:  47.2887°N, 122.51°W
Report Text: KTIW 192253Z 18012G20KT 10SM SCT028 BKN034 BKN100 10/04 A2995 RMK AO2 SLP142 T01000044
Loading
Personal Weather Stations






























Interactive Weather Map New forecast layout! Learn more

10-Day Weather Forecast

Advertisements
Track Severe Weather on mobile